Advance Mills, Virginia
Current Conditions -  °F | °C
As of 8:53 AM on Monday 26 Jan 2015 (Local Time) from KCHO Reporting Station
Light Rain Light Rain  
Wind Chill: 29°   Ceiling: 400
Heat Index: 36°   Visibility: 3mi
Dew Point: 34°   Wind: 9mph
Humidity: 93%   Direction: 30°NNE
Pressure: 29.72"   Gusts: NA
Location:  38.2469°N, 78.3926°W
Report Text: KCHO 261353Z 03008KT 3SM -RA BR OVC004 02/01 A2972 RMK AO2 SLP067 P0002 T00220011
Loading
Personal Weather Stations






























Interactive Weather Map New forecast layout! Learn more

10-Day Weather Forecast

Advertisements
Track Severe Weather on mobile